x

Fowey Rock, Fl (fwyf1) Weather Station

10:00am - Sun 19th Feb 2017 All times are EST. -5 hours from GMT.

  • Wind
    8mph
  • Sea Temp 74°f
  • Air Temp 78°f
  • Sea Pressure 1019.3mb
  • Fowey Rock, Fl
  • Fowey Rock, Fl

More Historic Weather Station data

Upgrade to MSW Pro to gain access to the past 30 days of data for over 8000 Wavebouys and Weather Stations around the globe.

Join Pro

Comparision Forecast

View Surf forecast
   
Sun 02/19 10:00am 8
mph
1019.3mb 74f 78f
9:00am 8
mph
1018.9mb 74f 75f
8:00am 8 9 mph 1018.3mb 74f 76f
7:00am 9 10 mph 1017.8mb 74f 74f
6:00am 9
mph
1017.1mb 74f 75f
5:00am 11 13 mph 1016.6mb 74f 75f
4:00am 14 15 mph 1016.4mb 74f 75f
3:00am 14
mph
1016.8mb 74f 75f
2:00am 14 15 mph 1017.1mb 75f 76f
1:00am 15 16 mph 1017.3mb 75f 76f
12:00am 13
mph
1017.7mb 75f 76f
Sat 02/18 11:00pm 10 11 mph 1018mb 74f 76f
10:00pm 15 16 mph 1018.1mb 74f 76f
9:00pm 16
mph
1017.6mb 74f 76f
8:00pm 16 17 mph 1017.3mb 75f 76f
7:00pm 13 14 mph 1017.1mb 75f 76f
6:00pm 11 13 mph 1017.1mb 75f 76f
5:00pm 11 13 mph 1016.6mb 75f 76f
4:00pm 14
mph
1016.6mb 75f 76f
3:00pm 7 8 mph 1016.9mb 74f 76f
2:00pm 8 9 mph 1017mb 74f 76f
1:00pm 6
mph
1018.1mb 74f 76f
12:00pm 8
mph
1018.5mb 74f 76f
11:00am 10 11 mph 1018.9mb 74f 76f
10:00am 11 13 mph 1018.9mb 74f 75f
9:00am 9 10 mph 1018.4mb 73f 74f
8:00am 11 14 mph 1017.8mb 73f 74f
7:00am 11 13 mph 1017.4mb 74f 73f
6:00am 11 15 mph 1017.2mb 74f 73f
5:00am 13 15 mph 1016.8mb 74f 73f
4:00am 15 17 mph 1016.6mb 74f 73f
3:00am 15
mph
1016.6mb 74f 73f
2:00am 14 16 mph 1016.9mb 74f 73f
1:00am 9 10 mph 1017.5mb 74f 72f
12:00am 10 13 mph 1018.3mb 74f 72f
Fri 02/17 11:00pm 13 14 mph 1018.4mb 74f 72f
10:00pm 13 14 mph 1018.6mb 74f 71f
9:00pm 14
mph
1018.6mb 74f 72f
8:00pm 13 15 mph 1018.3mb 74f 72f
7:00pm 13 14 mph 1018mb 74f 72f
6:00pm 10 11 mph 1018mb 74f 72f
5:00pm 13 15 mph 1018mb 75f 72f
4:00pm 10 11 mph 1017.8mb 75f 72f
3:00pm 10 11 mph 1018mb 75f 72f
2:00pm 10 13 mph 1018.6mb 75f 72f
1:00pm 11 14 mph 1019.3mb 75f 72f
12:00pm 11 14 mph 1019.9mb 75f 72f
11:00am 14 16 mph 1020.2mb 74f 72f
10:00am 13 14 mph 1020mb 74f 69f
9:00am 11 13 mph 1019.8mb 74f 67f
8:00am 7 8 mph 1019.4mb 73f 66f
7:00am 11 13 mph 1018.7mb 74f 65f
6:00am 13 14 mph 1017.9mb 74f 65f
5:00am 7 8 mph 1017.6mb 74f 64f
4:00am 10
mph
1017.3mb 74f 64f
3:00am 10 11 mph 1017.2mb 74f 64f
2:00am 11 13 mph 1017.6mb 74f 64f
1:00am 13 15 mph 1017.7mb 74f 65f
12:00am 15 16 mph 1018.2mb 74f 65f
Thu 02/16 11:00pm 17 18 mph 1017.8mb 74f 66f
10:00pm 18 20 mph 1017.9mb 74f 69f
9:00pm 21 22 mph 1017.6mb 74f 70f
8:00pm 17 20 mph 1016.9mb 74f 72f
7:00pm 20 21 mph 1016.2mb 74f 73f
6:00pm 20 21 mph 1015.6mb 74f 74f
5:00pm 23 25 mph 1015.3mb 74f 74f
4:00pm 22 23 mph 1015mb 74f 75f
3:00pm 28 29 mph 1014.4mb 74f 75f
2:00pm 22 24 mph 1015.2mb 74f 74f
1:00pm 16 18 mph 1015.9mb 74f 73f
12:00pm 14 15 mph 1016.3mb 74f 72f
11:00am 14 15 mph 1016.8mb 74f 71f
10:00am 15 17 mph 1016.9mb 74f 70f
9:00am 21 23 mph 1016.2mb 74f 69f
8:00am 18 21 mph 1015.4mb 74f 70f
7:00am 22 25 mph 1014.6mb 74f 71f
6:00am 22 23 mph 1014mb 74f 71f
5:00am 21 23 mph 1013.7mb 74f 72f
4:00am 21 23 mph 1013.1mb 74f 72f
3:00am 23 25 mph 1012.9mb 74f 72f
2:00am 25 26 mph 1013.1mb 74f 73f
1:00am 22 23 mph 1013.3mb 74f 74f
12:00am 18 20 mph 1013.5mb 74f 75f
Wed 02/15 11:00pm 20 22 mph 1013.5mb 74f 75f
10:00pm 20 21 mph 1013.5mb 74f 76f
9:00pm 20 22 mph 1013.3mb 75f 76f
8:00pm 18 21 mph 1012.8mb 75f 76f
7:00pm 20 22 mph 1012.4mb 75f 76f
6:00pm 24 26 mph 1012.1mb 75f 77f
5:00pm 25 26 mph 1011.8mb 75f 77f